weather.gov     
National Weather Service

Terminal Aerodrome Forecast
NWS Homepage
This page is being discontinued on March 12, 2014.
The same data is available at this site. Please update your bookmarks.
Thank you, and we apologize for the inconvenience.
Please send an email to SR-SRH.Webmaster@noaa.gov with any concerns.


Current Version
Previous Version:    01  02  03  04  05  06  07  08  09  10  11  12  13  14  15  16  17  18  19  20  21  22  23  
[Printable]
786
FTAK31 PAJN 251100
TAFAPG
TAF
PAPG 251132Z 2512/2612 00000KT P6SM FEW008 SCT020 OVC035
      TEMPO 2512/2515 3SM -RA BR SCT003 BKN015 OVC025
     FM251500 00000KT 5SM -RA BR FEW005 SCT012 OVC025
     FM251900 06004KT 6SM -RA BR SCT015 BKN035 OVC050
     FM260200 09003KT 5SM -RA BR SCT020 OVC030
     FM260900 00000KT 3SM -RA BR BKN015 OVC020
      AMD LTD TO CLD VIS AND WIND 2512/2515=


U.S. Dept. of Commerce
NOAA National Weather Service
1325 East West Highway
Silver Spring, MD 20910
E-mail: w-nws.webmaster@noaa.gov
Page last modified: May 16, 2007
NATIONAL WEATHER SERVICE: for Safety, for Work, for Fun - FOR LIFE